This is the latest recevied weather packets stored in our database for station/object N0EDB-13. If no packets are shown the sender has not sent any weather packets the latest 10 day(s).
| Time | Temp. | Humidity | Pressure | Rain* | Wind** | Luminosity | Snow |
|---|---|---|---|---|---|---|---|
| 1777715821 | 3.33° C | 55% | 1530.2 hPa | 0 mm | - | 0 W/m² | - |
| 1777715520 | 3.33° C | 56% | 1531.2 hPa | 0 mm | - | 0 W/m² | - |
| 1777715220 | 2.22° C | 57% | 1533.1 hPa | 0 mm | - | 0 W/m² | - |
| 1777714919 | 2.22° C | 59% | 1534 hPa | 0 mm | - | 0 W/m² | - |
| 1777714618 | 2.22° C | 60% | 1533.5 hPa | 0 mm | - | 0 W/m² | - |
| 1777714317 | 2.78° C | 59% | 1532.7 hPa | 0 mm | - | 0 W/m² | - |
| 1777714016 | 2.78° C | 59% | 1532.5 hPa | 0 mm | - | 0 W/m² | - |
| 1777713715 | 2.78° C | 59% | 1532.3 hPa | 0 mm | - | 0 W/m² | - |
| 1777713415 | 2.78° C | 56% | 1532.1 hPa | 0 mm | - | 0 W/m² | - |
| 1777713114 | 2.78° C | 57% | 1532.8 hPa | 0 mm | - | 0 W/m² | - |
| 1777712813 | 2.22° C | 59% | 1533.1 hPa | 0 mm | - | 0 W/m² | - |
| 1777712513 | 2.78° C | 57% | 1532.7 hPa | 0 mm | - | 0 W/m² | - |
| 1777712212 | 2.22° C | 58% | 1533.4 hPa | 0 mm | - | 0 W/m² | - |
| 1777711911 | 2.22° C | 58% | 1534 hPa | 0 mm | - | 0 W/m² | - |
| 1777711611 | 2.22° C | 61% | 1533.4 hPa | 0 mm | - | 0 W/m² | - |
| 1777711311 | 2.78° C | 60% | 1531.7 hPa | 0 mm | - | 0 W/m² | - |
| 1777711011 | 3.33° C | 57% | 1529.9 hPa | 0 mm | - | 0 W/m² | - |
| 1777710709 | 3.89° C | 56% | 1528.7 hPa | 0 mm | - | 0 W/m² | - |
| 1777710408 | 4.44° C | 54% | 1527.2 hPa | 0 mm | - | 0 W/m² | - |
| 1777710108 | 5° C | 53% | 1526.2 hPa | 0 mm | - | 0 W/m² | - |
| 1777709808 | 5° C | 52% | 1525.5 hPa | 0 mm | - | 0 W/m² | - |
| 1777709508 | 5° C | 50% | 1525.5 hPa | 0 mm | - | 0 W/m² | - |
| 1777709208 | 5° C | 51% | 1525.9 hPa | 0 mm | - | 0 W/m² | - |
| 1777708907 | 4.44° C | 57% | 1526.4 hPa | 0 mm | - | 0 W/m² | - |
| 1777708606 | 4.44° C | 57% | 1526.4 hPa | 0 mm | - | 0 W/m² | - |
* Rain latest hour (hover to see other rain measurements)
** Current wind speed in m/s (hover to see current wind gust speed)